Terminal Aerodrome Forecast
Issued by NWS

Home | Current Version | Previous Version | Graphics & Text | Print | Product List | Glossary On
Versions: 1 2 3 4 5 6 7 8 9 10 11 12 13 14 15 16 17 18 19 20 21 22 23 24 25 26 27 28 29
000
FTUS43 KABR 250500
TAFPIR
TAF
KPIR 250536Z 2506/2606 10010KT P6SM OVC070
     FM251000 10009KT 4SM -SN OVC015
     FM251800 01018G28KT 3SM BLSN OVC015
     FM252300 35015G22KT 5SM BLSN OVC060=

USA.gov is the U.S. government's official web portal to all federal, state and local government web resources and services.